sensor_id;sensor_type;location;lat;lon;timestamp;pressure;altitude;pressure_sealevel;temperature;humidity
57000;BME280;42891;50.006;21.964;2023-03-04T00:03:54;98894.41;;;-0.09;82.31
57000;BME280;42891;50.006;21.964;2023-03-04T00:07:54;98893.69;;;0.06;81.86
57000;BME280;42891;50.006;21.964;2023-03-04T00:11:54;98897.72;;;-0.25;82.75
57000;BME280;42891;50.006;21.964;2023-03-04T00:15:55;98877.38;;;-0.34;82.36
57000;BME280;42891;50.006;21.964;2023-03-04T00:19:55;98907.03;;;-0.21;82.76
57000;BME280;42891;50.006;21.964;2023-03-04T00:23:56;98889.00;;;-0.43;82.72
57000;BME280;42891;50.006;21.964;2023-03-04T00:27:56;98880.53;;;-0.27;83.28
57000;BME280;42891;50.006;21.964;2023-03-04T00:31:57;98874.84;;;-0.16;82.68
57000;BME280;42891;50.006;21.964;2023-03-04T00:35:58;98875.25;;;-0.26;82.99
57000;BME280;42891;50.006;21.964;2023-03-04T00:39:58;98863.69;;;-0.38;82.27
57000;BME280;42891;50.006;21.964;2023-03-04T00:43:58;98865.22;;;-0.14;81.74
57000;BME280;42891;50.006;21.964;2023-03-04T00:47:59;98860.19;;;-0.18;81.02
57000;BME280;42891;50.006;21.964;2023-03-04T00:51:59;98867.91;;;-0.16;80.98
57000;BME280;42891;50.006;21.964;2023-03-04T00:55:59;98854.84;;;-0.33;81.45
57000;BME280;42891;50.006;21.964;2023-03-04T00:59:59;98834.00;;;-0.32;81.40
57000;BME280;42891;50.006;21.964;2023-03-04T01:04:00;98844.63;;;-0.37;81.88
57000;BME280;42891;50.006;21.964;2023-03-04T01:08:01;98856.28;;;-0.26;81.83
57000;BME280;42891;50.006;21.964;2023-03-04T01:12:01;98825.31;;;-0.31;81.38
57000;BME280;42891;50.006;21.964;2023-03-04T01:16:02;98803.50;;;-0.27;81.72
57000;BME280;42891;50.006;21.964;2023-03-04T01:20:05;98831.22;;;-0.08;81.12
57000;BME280;42891;50.006;21.964;2023-03-04T01:24:05;98820.13;;;-0.31;81.30
57000;BME280;42891;50.006;21.964;2023-03-04T01:28:06;98818.25;;;-0.27;82.00
57000;BME280;42891;50.006;21.964;2023-03-04T01:32:06;98808.28;;;-0.18;80.90
57000;BME280;42891;50.006;21.964;2023-03-04T01:36:06;98776.53;;;-0.42;81.08
57000;BME280;42891;50.006;21.964;2023-03-04T01:40:08;98788.97;;;-0.67;81.99
57000;BME280;42891;50.006;21.964;2023-03-04T01:44:09;98798.06;;;-0.59;81.63
57000;BME280;42891;50.006;21.964;2023-03-04T01:48:13;98795.63;;;-0.62;81.51
57000;BME280;42891;50.006;21.964;2023-03-04T01:52:15;98779.78;;;-0.56;81.65
57000;BME280;42891;50.006;21.964;2023-03-04T01:56:29;98735.09;;;-0.61;81.61
57000;BME280;42891;50.006;21.964;2023-03-04T02:00:32;98730.56;;;-0.57;81.49
57000;BME280;42891;50.006;21.964;2023-03-04T02:04:33;98764.44;;;-0.60;81.87
57000;BME280;42891;50.006;21.964;2023-03-04T02:08:34;98729.97;;;-0.62;81.93
57000;BME280;42891;50.006;21.964;2023-03-04T02:12:34;98762.75;;;-0.61;82.11
57000;BME280;42891;50.006;21.964;2023-03-04T02:16:35;98748.94;;;-0.62;81.87
57000;BME280;42891;50.006;21.964;2023-03-04T02:20:47;98751.53;;;-0.62;82.82
57000;BME280;42891;50.006;21.964;2023-03-04T02:24:54;98736.94;;;-0.45;82.38
57000;BME280;42891;50.006;21.964;2023-03-04T02:28:58;98751.94;;;-0.33;82.03
57000;BME280;42891;50.006;21.964;2023-03-04T02:32:59;98746.34;;;-0.43;81.63
57000;BME280;42891;50.006;21.964;2023-03-04T02:37:00;98747.41;;;-0.29;81.79
57000;BME280;42891;50.006;21.964;2023-03-04T02:41:02;98727.81;;;-0.35;80.72
57000;BME280;42891;50.006;21.964;2023-03-04T02:45:02;98727.88;;;-0.37;80.41
57000;BME280;42891;50.006;21.964;2023-03-04T02:49:02;98720.06;;;-0.54;81.65
57000;BME280;42891;50.006;21.964;2023-03-04T02:53:03;98702.13;;;-0.59;80.92
57000;BME280;42891;50.006;21.964;2023-03-04T02:57:06;98719.78;;;-0.48;80.55
57000;BME280;42891;50.006;21.964;2023-03-04T03:01:08;98703.53;;;-0.34;80.82
57000;BME280;42891;50.006;21.964;2023-03-04T03:05:08;98701.19;;;-0.39;80.65
57000;BME280;42891;50.006;21.964;2023-03-04T03:09:09;98695.44;;;-0.28;80.41
57000;BME280;42891;50.006;21.964;2023-03-04T03:13:09;98685.59;;;-0.21;80.27
57000;BME280;42891;50.006;21.964;2023-03-04T03:17:09;98689.81;;;-0.36;80.38
57000;BME280;42891;50.006;21.964;2023-03-04T03:21:10;98677.53;;;-0.32;80.25
57000;BME280;42891;50.006;21.964;2023-03-04T03:25:11;98672.78;;;-0.24;80.65
57000;BME280;42891;50.006;21.964;2023-03-04T03:29:12;98671.09;;;-0.25;80.76
57000;BME280;42891;50.006;21.964;2023-03-04T03:33:12;98658.75;;;-0.20;79.75
57000;BME280;42891;50.006;21.964;2023-03-04T03:37:12;98680.97;;;0.03;79.74
57000;BME280;42891;50.006;21.964;2023-03-04T03:41:12;98665.94;;;-0.08;80.02
57000;BME280;42891;50.006;21.964;2023-03-04T03:45:13;98645.88;;;-0.04;79.50
57000;BME280;42891;50.006;21.964;2023-03-04T03:49:13;98641.97;;;-0.30;80.46
57000;BME280;42891;50.006;21.964;2023-03-04T03:53:15;98655.00;;;-0.14;80.33
57000;BME280;42891;50.006;21.964;2023-03-04T03:57:15;98651.63;;;0.01;80.11
57000;BME280;42891;50.006;21.964;2023-03-04T04:01:16;98660.75;;;-0.08;80.46
57000;BME280;42891;50.006;21.964;2023-03-04T04:05:16;98647.53;;;-0.03;80.95
57000;BME280;42891;50.006;21.964;2023-03-04T04:09:16;98644.28;;;0.09;80.27
57000;BME280;42891;50.006;21.964;2023-03-04T04:13:17;98640.31;;;0.20;80.41
57000;BME280;42891;50.006;21.964;2023-03-04T04:17:17;98634.81;;;0.08;80.51
57000;BME280;42891;50.006;21.964;2023-03-04T04:21:17;98619.56;;;0.02;80.13
57000;BME280;42891;50.006;21.964;2023-03-04T04:25:18;98625.25;;;0.26;79.66
57000;BME280;42891;50.006;21.964;2023-03-04T04:29:18;98619.81;;;-0.03;79.92
57000;BME280;42891;50.006;21.964;2023-03-04T04:33:19;98623.97;;;0.17;80.46
57000;BME280;42891;50.006;21.964;2023-03-04T04:37:19;98619.91;;;-0.04;81.32
57000;BME280;42891;50.006;21.964;2023-03-04T04:41:22;98601.41;;;0.02;80.34
57000;BME280;42891;50.006;21.964;2023-03-04T04:45:24;98605.31;;;-0.07;81.04
57000;BME280;42891;50.006;21.964;2023-03-04T04:49:24;98595.31;;;-0.14;81.83
57000;BME280;42891;50.006;21.964;2023-03-04T04:53:24;98602.31;;;0.01;81.63
57000;BME280;42891;50.006;21.964;2023-03-04T04:57:25;98597.75;;;0.06;81.35
57000;BME280;42891;50.006;21.964;2023-03-04T05:01:26;98587.47;;;-0.13;81.86
57000;BME280;42891;50.006;21.964;2023-03-04T05:05:26;98609.78;;;-0.26;82.61
57000;BME280;42891;50.006;21.964;2023-03-04T05:09:26;98603.06;;;-0.30;83.51
57000;BME280;42891;50.006;21.964;2023-03-04T05:13:27;98588.31;;;-0.12;83.15
57000;BME280;42891;50.006;21.964;2023-03-04T05:17:27;98571.22;;;-0.16;83.45
57000;BME280;42891;50.006;21.964;2023-03-04T05:21:27;98594.16;;;-0.09;83.11
57000;BME280;42891;50.006;21.964;2023-03-04T05:25:28;98584.06;;;0.03;82.82
57000;BME280;42891;50.006;21.964;2023-03-04T05:29:28;98587.72;;;-0.02;82.88
57000;BME280;42891;50.006;21.964;2023-03-04T05:33:28;98584.31;;;-0.02;83.33
57000;BME280;42891;50.006;21.964;2023-03-04T05:37:28;98560.69;;;-0.13;82.96
57000;BME280;42891;50.006;21.964;2023-03-04T05:41:29;98554.97;;;-0.20;82.72
57000;BME280;42891;50.006;21.964;2023-03-04T05:45:29;98558.25;;;-0.16;82.17
57000;BME280;42891;50.006;21.964;2023-03-04T05:49:29;98569.53;;;-0.18;82.13
57000;BME280;42891;50.006;21.964;2023-03-04T05:53:30;98553.72;;;-0.13;81.37
57000;BME280;42891;50.006;21.964;2023-03-04T05:57:30;98558.47;;;-0.21;82.28
57000;BME280;42891;50.006;21.964;2023-03-04T06:01:30;98569.53;;;-0.18;82.05
57000;BME280;42891;50.006;21.964;2023-03-04T06:05:30;98548.22;;;-0.07;82.42
57000;BME280;42891;50.006;21.964;2023-03-04T06:09:32;98553.25;;;-0.04;81.57
57000;BME280;42891;50.006;21.964;2023-03-04T06:13:32;98559.47;;;-0.24;82.35
57000;BME280;42891;50.006;21.964;2023-03-04T06:17:33;98568.47;;;-0.13;81.97
57000;BME280;42891;50.006;21.964;2023-03-04T06:21:33;98563.72;;;-0.05;80.70
57000;BME280;42891;50.006;21.964;2023-03-04T06:25:33;98575.78;;;-0.04;81.26
57000;BME280;42891;50.006;21.964;2023-03-04T06:29:34;98554.13;;;-0.21;80.83
57000;BME280;42891;50.006;21.964;2023-03-04T06:33:34;98549.97;;;-0.07;80.52
57000;BME280;42891;50.006;21.964;2023-03-04T06:37:35;98567.31;;;0.08;80.81
57000;BME280;42891;50.006;21.964;2023-03-04T06:41:35;98544.63;;;-0.04;80.29
57000;BME280;42891;50.006;21.964;2023-03-04T06:45:37;98562.44;;;0.20;79.99
57000;BME280;42891;50.006;21.964;2023-03-04T06:49:38;98580.72;;;0.01;80.02
57000;BME280;42891;50.006;21.964;2023-03-04T06:53:39;98569.19;;;0.06;79.43
57000;BME280;42891;50.006;21.964;2023-03-04T06:57:40;98595.94;;;0.24;78.78
57000;BME280;42891;50.006;21.964;2023-03-04T07:01:40;98589.22;;;0.20;78.49
57000;BME280;42891;50.006;21.964;2023-03-04T07:05:41;98577.50;;;0.13;78.87
57000;BME280;42891;50.006;21.964;2023-03-04T07:09:42;98611.22;;;0.46;78.37
57000;BME280;42891;50.006;21.964;2023-03-04T07:13:43;98606.38;;;0.56;78.17
57000;BME280;42891;50.006;21.964;2023-03-04T07:17:43;98607.38;;;0.54;78.34
57000;BME280;42891;50.006;21.964;2023-03-04T07:21:44;98584.06;;;0.52;77.83
57000;BME280;42891;50.006;21.964;2023-03-04T07:25:45;98606.03;;;0.62;77.14
57000;BME280;42891;50.006;21.964;2023-03-04T07:29:45;98602.59;;;0.46;77.56
57000;BME280;42891;50.006;21.964;2023-03-04T07:33:45;98600.25;;;0.73;77.10
57000;BME280;42891;50.006;21.964;2023-03-04T07:37:46;98591.72;;;0.71;77.14
57000;BME280;42891;50.006;21.964;2023-03-04T07:41:46;98596.56;;;0.77;77.10
57000;BME280;42891;50.006;21.964;2023-03-04T07:45:46;98598.41;;;0.75;77.33
57000;BME280;42891;50.006;21.964;2023-03-04T07:49:47;98605.28;;;0.76;77.42
57000;BME280;42891;50.006;21.964;2023-03-04T07:53:50;98597.13;;;0.66;77.70
57000;BME280;42891;50.006;21.964;2023-03-04T07:57:51;98597.66;;;0.73;77.10
57000;BME280;42891;50.006;21.964;2023-03-04T08:01:51;98591.63;;;0.73;77.03
57000;BME280;42891;50.006;21.964;2023-03-04T08:05:51;98588.00;;;0.59;76.43
57000;BME280;42891;50.006;21.964;2023-03-04T08:09:52;98584.16;;;0.82;75.79
57000;BME280;42891;50.006;21.964;2023-03-04T08:13:52;98580.38;;;0.72;76.03
57000;BME280;42891;50.006;21.964;2023-03-04T08:17:53;98593.78;;;0.80;76.08
57000;BME280;42891;50.006;21.964;2023-03-04T08:21:53;98599.41;;;0.89;76.62
57000;BME280;42891;50.006;21.964;2023-03-04T08:25:54;98588.53;;;0.82;76.32
57000;BME280;42891;50.006;21.964;2023-03-04T08:29:54;98588.09;;;1.06;75.98
57000;BME280;42891;50.006;21.964;2023-03-04T08:33:54;98584.56;;;0.91;76.42
57000;BME280;42891;50.006;21.964;2023-03-04T08:37:55;98589.06;;;1.19;75.88
57000;BME280;42891;50.006;21.964;2023-03-04T08:41:55;98579.13;;;0.79;76.94
57000;BME280;42891;50.006;21.964;2023-03-04T08:45:56;98576.03;;;0.73;76.91
57000;BME280;42891;50.006;21.964;2023-03-04T08:49:56;98594.06;;;0.92;76.55
57000;BME280;42891;50.006;21.964;2023-03-04T08:53:57;98584.91;;;1.00;76.52
57000;BME280;42891;50.006;21.964;2023-03-04T08:57:57;98552.56;;;0.74;76.61
57000;BME280;42891;50.006;21.964;2023-03-04T09:01:58;98540.81;;;0.51;76.48
57000;BME280;42891;50.006;21.964;2023-03-04T09:06:00;98562.31;;;1.01;76.64
57000;BME280;42891;50.006;21.964;2023-03-04T09:10:01;98573.13;;;1.09;76.30
57000;BME280;42891;50.006;21.964;2023-03-04T09:14:02;98571.81;;;1.02;76.46
57000;BME280;42891;50.006;21.964;2023-03-04T09:18:03;98572.06;;;0.97;74.80
57000;BME280;42891;50.006;21.964;2023-03-04T09:22:04;98552.81;;;1.16;74.09
57000;BME280;42891;50.006;21.964;2023-03-04T09:30:14;98567.84;;;1.11;74.31
57000;BME280;42891;50.006;21.964;2023-03-04T09:34:15;98574.53;;;1.15;73.70
57000;BME280;42891;50.006;21.964;2023-03-04T09:38:15;98576.38;;;1.29;73.41
57000;BME280;42891;50.006;21.964;2023-03-04T09:42:34;98571.97;;;1.45;73.80
57000;BME280;42891;50.006;21.964;2023-03-04T09:46:37;98553.63;;;1.32;73.23
57000;BME280;42891;50.006;21.964;2023-03-04T09:50:47;98571.31;;;1.42;73.75
57000;BME280;42891;50.006;21.964;2023-03-04T10:07:23;98570.63;;;1.38;74.24
57000;BME280;42891;50.006;21.964;2023-03-04T10:11:34;98556.41;;;1.29;73.88
57000;BME280;42891;50.006;21.964;2023-03-04T10:15:41;98554.28;;;1.36;74.26
57000;BME280;42891;50.006;21.964;2023-03-04T10:20:00;98557.13;;;1.62;73.63
57000;BME280;42891;50.006;21.964;2023-03-04T10:24:14;98532.53;;;1.37;74.42
57000;BME280;42891;50.006;21.964;2023-03-04T10:28:39;98550.75;;;1.07;74.87
57000;BME280;42891;50.006;21.964;2023-03-04T10:32:44;98543.34;;;1.45;74.22
57000;BME280;42891;50.006;21.964;2023-03-04T10:37:02;98555.53;;;1.45;73.66
57000;BME280;42891;50.006;21.964;2023-03-04T10:41:13;98527.50;;;1.19;72.75
57000;BME280;42891;50.006;21.964;2023-03-04T10:45:24;98497.19;;;0.88;73.17
57000;BME280;42891;50.006;21.964;2023-03-04T10:49:26;98519.28;;;1.42;72.78
57000;BME280;42891;50.006;21.964;2023-03-04T10:53:29;98540.53;;;1.48;72.11
57000;BME280;42891;50.006;21.964;2023-03-04T10:57:35;98518.44;;;1.11;73.26
57000;BME280;42891;50.006;21.964;2023-03-04T11:01:36;98528.50;;;1.17;73.26
57000;BME280;42891;50.006;21.964;2023-03-04T11:05:37;98524.66;;;1.08;73.62
57000;BME280;42891;50.006;21.964;2023-03-04T11:09:37;98514.78;;;1.29;73.24
57000;BME280;42891;50.006;21.964;2023-03-04T11:13:49;98500.41;;;1.08;73.36
57000;BME280;42891;50.006;21.964;2023-03-04T11:18:05;98521.84;;;1.27;73.18
57000;BME280;42891;50.006;21.964;2023-03-04T11:22:13;98523.31;;;1.17;73.26
57000;BME280;42891;50.006;21.964;2023-03-04T11:26:20;98506.69;;;0.73;74.03
57000;BME280;42891;50.006;21.964;2023-03-04T11:30:32;98508.50;;;1.03;73.36
57000;BME280;42891;50.006;21.964;2023-03-04T11:34:48;98504.94;;;1.04;72.53
57000;BME280;42891;50.006;21.964;2023-03-04T11:38:50;98504.63;;;0.94;73.09
57000;BME280;42891;50.006;21.964;2023-03-04T12:00:23;98498.22;;;0.85;74.75
57000;BME280;42891;50.006;21.964;2023-03-04T12:08:52;98491.94;;;1.04;74.23
57000;BME280;42891;50.006;21.964;2023-03-04T12:17:45;98457.13;;;0.92;74.12
57000;BME280;42891;50.006;21.964;2023-03-04T12:30:39;98456.41;;;0.74;73.97
57000;BME280;42891;50.006;21.964;2023-03-04T12:39:29;98484.78;;;0.93;73.54
57000;BME280;42891;50.006;21.964;2023-03-04T12:43:37;98499.56;;;0.77;74.13
57000;BME280;42891;50.006;21.964;2023-03-04T12:56:21;98467.50;;;0.92;74.15
57000;BME280;42891;50.006;21.964;2023-03-04T13:00:47;98458.56;;;0.82;74.98
57000;BME280;42891;50.006;21.964;2023-03-04T13:05:07;98454.38;;;0.79;74.54
57000;BME280;42891;50.006;21.964;2023-03-04T13:09:27;98455.34;;;0.93;74.51
57000;BME280;42891;50.006;21.964;2023-03-04T13:17:42;98460.09;;;1.00;74.45
57000;BME280;42891;50.006;21.964;2023-03-04T13:21:45;98450.75;;;1.12;74.42
57000;BME280;42891;50.006;21.964;2023-03-04T13:29:56;98441.91;;;1.00;75.21
57000;BME280;42891;50.006;21.964;2023-03-04T13:33:58;98448.41;;;0.93;75.47
57000;BME280;42891;50.006;21.964;2023-03-04T13:37:58;98431.47;;;0.86;75.66
57000;BME280;42891;50.006;21.964;2023-03-04T13:41:59;98448.59;;;1.05;75.71
57000;BME280;42891;50.006;21.964;2023-03-04T13:50:35;98459.00;;;1.05;76.91
57000;BME280;42891;50.006;21.964;2023-03-04T13:54:36;98450.59;;;1.15;76.23
57000;BME280;42891;50.006;21.964;2023-03-04T13:58:37;98435.28;;;1.25;76.21
57000;BME280;42891;50.006;21.964;2023-03-04T14:02:38;98451.41;;;1.30;76.54
57000;BME280;42891;50.006;21.964;2023-03-04T14:06:49;98448.72;;;1.17;77.09
57000;BME280;42891;50.006;21.964;2023-03-04T14:10:54;98432.81;;;1.08;77.08
57000;BME280;42891;50.006;21.964;2023-03-04T14:14:57;98434.03;;;1.16;77.78
57000;BME280;42891;50.006;21.964;2023-03-04T14:19:01;98415.44;;;1.08;77.96
57000;BME280;42891;50.006;21.964;2023-03-04T14:23:21;98423.81;;;1.13;78.47
57000;BME280;42891;50.006;21.964;2023-03-04T14:27:22;98421.69;;;1.34;77.76
57000;BME280;42891;50.006;21.964;2023-03-04T14:31:23;98419.25;;;1.02;78.95
57000;BME280;42891;50.006;21.964;2023-03-04T14:35:27;98423.91;;;1.12;78.77
57000;BME280;42891;50.006;21.964;2023-03-04T14:39:30;98430.50;;;1.17;79.00
57000;BME280;42891;50.006;21.964;2023-03-04T14:43:58;98407.09;;;1.17;78.61
57000;BME280;42891;50.006;21.964;2023-03-04T14:48:00;98425.97;;;1.21;78.71
57000;BME280;42891;50.006;21.964;2023-03-04T14:52:04;98413.22;;;1.16;78.53
57000;BME280;42891;50.006;21.964;2023-03-04T14:56:08;98429.41;;;1.07;78.82
57000;BME280;42891;50.006;21.964;2023-03-04T15:04:21;98420.41;;;1.27;78.51
57000;BME280;42891;50.006;21.964;2023-03-04T15:08:24;98411.97;;;1.24;78.90
57000;BME280;42891;50.006;21.964;2023-03-04T15:12:29;98400.44;;;1.42;77.91
57000;BME280;42891;50.006;21.964;2023-03-04T15:16:54;98399.88;;;1.51;78.45
57000;BME280;42891;50.006;21.964;2023-03-04T15:21:01;98385.13;;;1.38;77.82
57000;BME280;42891;50.006;21.964;2023-03-04T15:25:02;98392.25;;;1.34;78.21
57000;BME280;42891;50.006;21.964;2023-03-04T15:29:09;98379.34;;;1.47;78.05
57000;BME280;42891;50.006;21.964;2023-03-04T15:33:11;98385.56;;;1.59;77.68
57000;BME280;42891;50.006;21.964;2023-03-04T15:37:18;98396.81;;;1.59;77.95
57000;BME280;42891;50.006;21.964;2023-03-04T15:41:25;98376.47;;;1.37;79.11
57000;BME280;42891;50.006;21.964;2023-03-04T15:45:31;98386.78;;;1.53;79.25
57000;BME280;42891;50.006;21.964;2023-03-04T15:49:34;98392.34;;;1.61;79.49
57000;BME280;42891;50.006;21.964;2023-03-04T15:53:41;98358.63;;;1.31;79.38
57000;BME280;42891;50.006;21.964;2023-03-04T15:57:44;98365.78;;;1.42;79.54
57000;BME280;42891;50.006;21.964;2023-03-04T16:01:45;98380.91;;;1.49;79.51
57000;BME280;42891;50.006;21.964;2023-03-04T16:05:47;98389.56;;;1.64;78.83
57000;BME280;42891;50.006;21.964;2023-03-04T16:09:53;98375.31;;;1.70;78.44
57000;BME280;42891;50.006;21.964;2023-03-04T16:13:55;98397.63;;;1.74;79.04
57000;BME280;42891;50.006;21.964;2023-03-04T16:17:55;98389.53;;;1.79;79.04
57000;BME280;42891;50.006;21.964;2023-03-04T16:21:56;98393.44;;;1.72;79.18
57000;BME280;42891;50.006;21.964;2023-03-04T16:25:56;98380.47;;;1.57;79.39
57000;BME280;42891;50.006;21.964;2023-03-04T16:29:57;98392.53;;;1.73;79.33
57000;BME280;42891;50.006;21.964;2023-03-04T16:33:57;98384.16;;;1.67;79.43
57000;BME280;42891;50.006;21.964;2023-03-04T16:37:57;98397.16;;;1.67;80.09
57000;BME280;42891;50.006;21.964;2023-03-04T16:41:57;98378.22;;;1.65;80.31
57000;BME280;42891;50.006;21.964;2023-03-04T16:45:58;98377.38;;;1.65;80.92
57000;BME280;42891;50.006;21.964;2023-03-04T16:49:58;98331.75;;;1.59;80.68
57000;BME280;42891;50.006;21.964;2023-03-04T16:53:59;98322.34;;;1.71;80.71
57000;BME280;42891;50.006;21.964;2023-03-04T16:57:59;98309.44;;;1.55;80.63
57000;BME280;42891;50.006;21.964;2023-03-04T17:01:59;98304.34;;;1.53;80.67
57000;BME280;42891;50.006;21.964;2023-03-04T17:06:00;98301.03;;;1.51;80.18
57000;BME280;42891;50.006;21.964;2023-03-04T17:10:00;98293.16;;;1.66;79.35
57000;BME280;42891;50.006;21.964;2023-03-04T17:14:01;98298.13;;;1.56;79.42
57000;BME280;42891;50.006;21.964;2023-03-04T17:18:01;98305.09;;;1.56;80.02
57000;BME280;42891;50.006;21.964;2023-03-04T17:22:02;98321.88;;;1.64;79.58
57000;BME280;42891;50.006;21.964;2023-03-04T17:26:03;98322.09;;;1.61;79.41
57000;BME280;42891;50.006;21.964;2023-03-04T17:30:04;98344.91;;;1.70;79.10
57000;BME280;42891;50.006;21.964;2023-03-04T17:34:05;98328.13;;;1.62;78.57
57000;BME280;42891;50.006;21.964;2023-03-04T17:38:06;98342.50;;;1.67;78.86
57000;BME280;42891;50.006;21.964;2023-03-04T17:42:06;98338.31;;;1.79;78.52
57000;BME280;42891;50.006;21.964;2023-03-04T17:46:09;98340.09;;;1.64;79.10
57000;BME280;42891;50.006;21.964;2023-03-04T17:50:11;98318.00;;;1.57;78.61
57000;BME280;42891;50.006;21.964;2023-03-04T17:54:11;98335.97;;;1.75;78.64
57000;BME280;42891;50.006;21.964;2023-03-04T17:58:12;98331.22;;;1.81;77.72
57000;BME280;42891;50.006;21.964;2023-03-04T18:02:13;98340.72;;;1.68;78.09
57000;BME280;42891;50.006;21.964;2023-03-04T18:06:14;98336.84;;;1.75;77.75
57000;BME280;42891;50.006;21.964;2023-03-04T18:10:16;98331.78;;;1.86;77.51
57000;BME280;42891;50.006;21.964;2023-03-04T18:14:16;98318.56;;;1.90;77.51
57000;BME280;42891;50.006;21.964;2023-03-04T18:18:16;98318.78;;;1.86;77.32
57000;BME280;42891;50.006;21.964;2023-03-04T18:22:16;98325.44;;;1.91;77.13
57000;BME280;42891;50.006;21.964;2023-03-04T18:26:17;98301.16;;;1.90;76.44
57000;BME280;42891;50.006;21.964;2023-03-04T18:30:18;98312.63;;;1.87;76.33
57000;BME280;42891;50.006;21.964;2023-03-04T18:34:20;98330.50;;;2.07;76.16
57000;BME280;42891;50.006;21.964;2023-03-04T18:38:20;98310.66;;;1.91;76.21
57000;BME280;42891;50.006;21.964;2023-03-04T18:42:20;98330.00;;;2.14;75.10
57000;BME280;42891;50.006;21.964;2023-03-04T18:46:30;98319.47;;;2.03;75.34
57000;BME280;42891;50.006;21.964;2023-03-04T18:50:33;98337.06;;;2.12;74.62
57000;BME280;42891;50.006;21.964;2023-03-04T18:54:33;98300.19;;;2.06;74.40
57000;BME280;42891;50.006;21.964;2023-03-04T18:58:35;98305.69;;;2.01;74.09
57000;BME280;42891;50.006;21.964;2023-03-04T19:02:44;98313.94;;;2.08;74.51
57000;BME280;42891;50.006;21.964;2023-03-04T19:06:46;98323.88;;;2.15;74.62
57000;BME280;42891;50.006;21.964;2023-03-04T19:10:46;98335.25;;;2.27;75.04
57000;BME280;42891;50.006;21.964;2023-03-04T19:14:46;98338.75;;;2.13;76.41
57000;BME280;42891;50.006;21.964;2023-03-04T19:18:47;98337.84;;;2.27;76.25
57000;BME280;42891;50.006;21.964;2023-03-04T19:22:47;98328.09;;;2.31;75.53
57000;BME280;42891;50.006;21.964;2023-03-04T19:26:47;98370.84;;;2.41;76.24
57000;BME280;42891;50.006;21.964;2023-03-04T19:30:48;98371.59;;;2.43;76.50
57000;BME280;42891;50.006;21.964;2023-03-04T19:34:48;98368.00;;;2.44;76.72
57000;BME280;42891;50.006;21.964;2023-03-04T19:38:48;98373.88;;;2.48;76.25
57000;BME280;42891;50.006;21.964;2023-03-04T19:42:49;98395.72;;;2.60;76.88
57000;BME280;42891;50.006;21.964;2023-03-04T19:46:49;98382.16;;;2.27;79.86
57000;BME280;42891;50.006;21.964;2023-03-04T19:50:49;98411.69;;;2.41;80.92
57000;BME280;42891;50.006;21.964;2023-03-04T19:54:49;98407.88;;;2.32;82.13
57000;BME280;42891;50.006;21.964;2023-03-04T19:58:56;98428.72;;;2.32;85.53
57000;BME280;42891;50.006;21.964;2023-03-04T20:02:56;98427.31;;;2.41;85.89
57000;BME280;42891;50.006;21.964;2023-03-04T20:06:57;98398.31;;;2.32;84.50
57000;BME280;42891;50.006;21.964;2023-03-04T20:10:57;98423.03;;;2.39;83.41
57000;BME280;42891;50.006;21.964;2023-03-04T20:14:57;98412.47;;;2.28;83.23
57000;BME280;42891;50.006;21.964;2023-03-04T20:18:58;98437.84;;;2.39;81.82
57000;BME280;42891;50.006;21.964;2023-03-04T20:22:59;98431.03;;;2.24;82.60
57000;BME280;42891;50.006;21.964;2023-03-04T20:26:59;98419.78;;;2.09;83.32
57000;BME280;42891;50.006;21.964;2023-03-04T20:31:17;98444.81;;;2.11;84.23
57000;BME280;42891;50.006;21.964;2023-03-04T20:35:18;98423.63;;;2.03;84.79
57000;BME280;42891;50.006;21.964;2023-03-04T20:39:19;98403.91;;;1.84;84.26
57000;BME280;42891;50.006;21.964;2023-03-04T20:43:19;98443.72;;;1.86;85.50
57000;BME280;42891;50.006;21.964;2023-03-04T20:47:22;98436.00;;;1.85;85.22
57000;BME280;42891;50.006;21.964;2023-03-04T20:51:22;98424.69;;;1.72;84.70
57000;BME280;42891;50.006;21.964;2023-03-04T20:55:23;98449.47;;;2.06;83.63
57000;BME280;42891;50.006;21.964;2023-03-04T20:59:23;98455.03;;;2.14;83.53
57000;BME280;42891;50.006;21.964;2023-03-04T21:03:23;98432.00;;;1.94;82.12
57000;BME280;42891;50.006;21.964;2023-03-04T21:07:24;98446.03;;;2.06;81.34
57000;BME280;42891;50.006;21.964;2023-03-04T21:11:25;98453.16;;;2.16;81.27
57000;BME280;42891;50.006;21.964;2023-03-04T21:15:25;98449.94;;;1.98;81.68
57000;BME280;42891;50.006;21.964;2023-03-04T21:19:31;98449.25;;;2.09;81.09
57000;BME280;42891;50.006;21.964;2023-03-04T21:23:32;98449.00;;;2.14;80.74
57000;BME280;42891;50.006;21.964;2023-03-04T21:27:32;98444.13;;;2.22;79.64
57000;BME280;42891;50.006;21.964;2023-03-04T21:31:43;98457.44;;;2.17;79.78
57000;BME280;42891;50.006;21.964;2023-03-04T21:35:44;98435.97;;;2.14;79.36
57000;BME280;42891;50.006;21.964;2023-03-04T21:39:46;98452.59;;;2.26;78.49
57000;BME280;42891;50.006;21.964;2023-03-04T21:43:47;98457.44;;;2.17;78.22
57000;BME280;42891;50.006;21.964;2023-03-04T21:47:48;98409.22;;;1.97;78.08
57000;BME280;42891;50.006;21.964;2023-03-04T21:51:48;98448.19;;;1.99;77.85
57000;BME280;42891;50.006;21.964;2023-03-04T21:55:49;98449.25;;;2.24;77.68
57000;BME280;42891;50.006;21.964;2023-03-04T21:59:50;98430.84;;;2.12;77.25
57000;BME280;42891;50.006;21.964;2023-03-04T22:03:50;98455.50;;;2.21;77.20
57000;BME280;42891;50.006;21.964;2023-03-04T22:07:50;98443.28;;;2.21;76.93
57000;BME280;42891;50.006;21.964;2023-03-04T22:11:51;98442.16;;;1.84;78.45
57000;BME280;42891;50.006;21.964;2023-03-04T22:15:56;98432.47;;;1.86;78.50
57000;BME280;42891;50.006;21.964;2023-03-04T22:19:56;98432.75;;;1.81;78.55
57000;BME280;42891;50.006;21.964;2023-03-04T22:23:58;98426.28;;;1.60;79.43
57000;BME280;42891;50.006;21.964;2023-03-04T22:27:58;98441.69;;;1.77;79.26
57000;BME280;42891;50.006;21.964;2023-03-04T22:31:58;98451.53;;;1.72;79.65
57000;BME280;42891;50.006;21.964;2023-03-04T22:35:59;98450.25;;;1.79;79.42
57000;BME280;42891;50.006;21.964;2023-03-04T22:39:59;98440.84;;;1.91;78.91
57000;BME280;42891;50.006;21.964;2023-03-04T22:44:01;98433.41;;;1.85;79.53